sensor_id;sensor_type;location;lat;lon;timestamp;P1;durP1;ratioP1;P2;durP2;ratioP2
83728;SDS011;73707;56.480;-2.840;2024-03-23T00:53:13;4.78;;;1.30;;
83728;SDS011;73707;56.480;-2.840;2024-03-23T00:55:40;6.07;;;1.20;;
83728;SDS011;73707;56.480;-2.840;2024-03-23T00:58:06;5.05;;;1.40;;
83728;SDS011;73707;56.480;-2.840;2024-03-23T01:00:32;3.90;;;1.60;;
83728;SDS011;73707;56.480;-2.840;2024-03-23T01:02:58;5.28;;;1.60;;
83728;SDS011;73707;56.480;-2.840;2024-03-23T01:05:23;4.83;;;1.10;;
83728;SDS011;73707;56.480;-2.840;2024-03-23T01:07:49;5.95;;;1.40;;
83728;SDS011;73707;56.480;-2.840;2024-03-23T01:10:14;5.40;;;1.20;;
83728;SDS011;73707;56.480;-2.840;2024-03-23T01:12:40;4.03;;;1.52;;
83728;SDS011;73707;56.480;-2.840;2024-03-23T01:15:06;3.57;;;1.40;;
83728;SDS011;73707;56.480;-2.840;2024-03-23T01:17:32;7.97;;;1.85;;
83728;SDS011;73707;56.480;-2.840;2024-03-23T01:19:57;3.87;;;1.40;;
83728;SDS011;73707;56.480;-2.840;2024-03-23T01:22:23;7.25;;;2.10;;
83728;SDS011;73707;56.480;-2.840;2024-03-23T01:24:49;6.80;;;1.75;;
83728;SDS011;73707;56.480;-2.840;2024-03-23T01:27:14;4.50;;;2.17;;
83728;SDS011;73707;56.480;-2.840;2024-03-23T01:29:40;4.93;;;1.67;;
83728;SDS011;73707;56.480;-2.840;2024-03-23T01:32:06;5.70;;;1.43;;
83728;SDS011;73707;56.480;-2.840;2024-03-23T01:34:32;6.88;;;2.25;;
83728;SDS011;73707;56.480;-2.840;2024-03-23T01:36:58;6.38;;;1.45;;
83728;SDS011;73707;56.480;-2.840;2024-03-23T01:39:24;9.43;;;2.23;;
83728;SDS011;73707;56.480;-2.840;2024-03-23T01:41:49;7.15;;;1.98;;
83728;SDS011;73707;56.480;-2.840;2024-03-23T01:44:16;5.28;;;1.92;;
83728;SDS011;73707;56.480;-2.840;2024-03-23T01:46:42;8.43;;;2.17;;
83728;SDS011;73707;56.480;-2.840;2024-03-23T01:49:09;7.37;;;2.00;;
83728;SDS011;73707;56.480;-2.840;2024-03-23T01:51:35;6.53;;;1.85;;
83728;SDS011;73707;56.480;-2.840;2024-03-23T01:54:02;8.90;;;2.10;;
83728;SDS011;73707;56.480;-2.840;2024-03-23T01:56:29;5.60;;;2.05;;
83728;SDS011;73707;56.480;-2.840;2024-03-23T01:58:58;5.97;;;1.85;;
83728;SDS011;73707;56.480;-2.840;2024-03-23T02:01:23;7.35;;;2.20;;
83728;SDS011;73707;56.480;-2.840;2024-03-23T02:03:49;6.63;;;1.98;;
83728;SDS011;73707;56.480;-2.840;2024-03-23T02:06:15;8.93;;;2.10;;
83728;SDS011;73707;56.480;-2.840;2024-03-23T02:08:40;3.93;;;1.80;;
83728;SDS011;73707;56.480;-2.840;2024-03-23T02:11:06;9.25;;;2.08;;
83728;SDS011;73707;56.480;-2.840;2024-03-23T02:13:32;9.43;;;2.15;;
83728;SDS011;73707;56.480;-2.840;2024-03-23T02:15:58;4.93;;;1.77;;
83728;SDS011;73707;56.480;-2.840;2024-03-23T02:18:23;8.63;;;2.07;;
83728;SDS011;73707;56.480;-2.840;2024-03-23T02:20:49;9.95;;;1.83;;
83728;SDS011;73707;56.480;-2.840;2024-03-23T02:23:15;8.03;;;2.13;;
83728;SDS011;73707;56.480;-2.840;2024-03-23T02:25:43;7.25;;;1.88;;
83728;SDS011;73707;56.480;-2.840;2024-03-23T02:28:09;8.82;;;2.20;;
83728;SDS011;73707;56.480;-2.840;2024-03-23T02:30:34;3.35;;;1.85;;
83728;SDS011;73707;56.480;-2.840;2024-03-23T02:33:00;6.22;;;1.95;;
83728;SDS011;73707;56.480;-2.840;2024-03-23T02:35:26;4.00;;;1.48;;
83728;SDS011;73707;56.480;-2.840;2024-03-23T02:37:52;8.80;;;1.77;;
83728;SDS011;73707;56.480;-2.840;2024-03-23T02:40:18;3.38;;;1.80;;
83728;SDS011;73707;56.480;-2.840;2024-03-23T02:42:45;7.55;;;1.65;;
83728;SDS011;73707;56.480;-2.840;2024-03-23T02:45:10;4.38;;;1.83;;
83728;SDS011;73707;56.480;-2.840;2024-03-23T02:47:36;4.18;;;1.58;;
83728;SDS011;73707;56.480;-2.840;2024-03-23T02:50:01;6.53;;;1.97;;
83728;SDS011;73707;56.480;-2.840;2024-03-23T02:52:27;6.60;;;2.20;;
83728;SDS011;73707;56.480;-2.840;2024-03-23T02:54:53;6.40;;;1.83;;
83728;SDS011;73707;56.480;-2.840;2024-03-23T02:57:19;7.00;;;2.17;;
83728;SDS011;73707;56.480;-2.840;2024-03-23T02:59:44;5.37;;;1.80;;
83728;SDS011;73707;56.480;-2.840;2024-03-23T03:02:11;6.22;;;1.58;;
83728;SDS011;73707;56.480;-2.840;2024-03-23T03:04:38;7.70;;;2.38;;
83728;SDS011;73707;56.480;-2.840;2024-03-23T03:07:03;5.88;;;2.03;;
83728;SDS011;73707;56.480;-2.840;2024-03-23T03:09:29;6.20;;;2.13;;
83728;SDS011;73707;56.480;-2.840;2024-03-23T03:11:55;6.13;;;2.03;;
83728;SDS011;73707;56.480;-2.840;2024-03-23T03:14:21;7.93;;;1.83;;
83728;SDS011;73707;56.480;-2.840;2024-03-23T03:16:46;4.78;;;1.73;;
83728;SDS011;73707;56.480;-2.840;2024-03-23T03:19:12;4.35;;;1.50;;
83728;SDS011;73707;56.480;-2.840;2024-03-23T03:21:38;4.87;;;1.53;;
83728;SDS011;73707;56.480;-2.840;2024-03-23T03:24:05;6.18;;;2.10;;
83728;SDS011;73707;56.480;-2.840;2024-03-23T03:26:31;7.93;;;2.15;;
83728;SDS011;73707;56.480;-2.840;2024-03-23T03:28:57;9.07;;;2.30;;
83728;SDS011;73707;56.480;-2.840;2024-03-23T03:31:23;9.33;;;2.23;;
83728;SDS011;73707;56.480;-2.840;2024-03-23T03:33:49;7.13;;;2.17;;
83728;SDS011;73707;56.480;-2.840;2024-03-23T03:36:16;7.72;;;2.00;;
83728;SDS011;73707;56.480;-2.840;2024-03-23T03:38:42;7.53;;;2.28;;
83728;SDS011;73707;56.480;-2.840;2024-03-23T03:41:07;5.65;;;2.13;;
83728;SDS011;73707;56.480;-2.840;2024-03-23T03:43:33;5.70;;;2.00;;
83728;SDS011;73707;56.480;-2.840;2024-03-23T03:45:59;7.47;;;2.38;;
83728;SDS011;73707;56.480;-2.840;2024-03-23T03:48:26;4.75;;;1.88;;
83728;SDS011;73707;56.480;-2.840;2024-03-23T03:50:52;7.75;;;1.98;;
83728;SDS011;73707;56.480;-2.840;2024-03-23T03:53:18;5.13;;;1.95;;
83728;SDS011;73707;56.480;-2.840;2024-03-23T03:55:44;5.65;;;2.22;;
83728;SDS011;73707;56.480;-2.840;2024-03-23T03:58:10;5.47;;;1.70;;
83728;SDS011;73707;56.480;-2.840;2024-03-23T04:00:35;5.43;;;1.87;;
83728;SDS011;73707;56.480;-2.840;2024-03-23T04:03:01;9.35;;;2.58;;
83728;SDS011;73707;56.480;-2.840;2024-03-23T04:05:27;5.23;;;1.97;;
83728;SDS011;73707;56.480;-2.840;2024-03-23T04:07:53;9.00;;;2.65;;
83728;SDS011;73707;56.480;-2.840;2024-03-23T04:10:19;8.70;;;2.50;;
83728;SDS011;73707;56.480;-2.840;2024-03-23T04:12:45;5.23;;;2.10;;
83728;SDS011;73707;56.480;-2.840;2024-03-23T04:15:12;6.70;;;2.67;;
83728;SDS011;73707;56.480;-2.840;2024-03-23T04:17:38;7.50;;;2.30;;
83728;SDS011;73707;56.480;-2.840;2024-03-23T04:20:04;7.65;;;2.83;;
83728;SDS011;73707;56.480;-2.840;2024-03-23T04:22:36;6.30;;;2.05;;
83728;SDS011;73707;56.480;-2.840;2024-03-23T04:25:02;8.60;;;2.33;;
83728;SDS011;73707;56.480;-2.840;2024-03-23T04:27:32;5.78;;;1.98;;
83728;SDS011;73707;56.480;-2.840;2024-03-23T04:29:58;9.77;;;2.38;;
83728;SDS011;73707;56.480;-2.840;2024-03-23T04:32:26;6.50;;;2.08;;
83728;SDS011;73707;56.480;-2.840;2024-03-23T04:34:52;6.80;;;2.03;;
83728;SDS011;73707;56.480;-2.840;2024-03-23T04:37:18;4.55;;;1.80;;
83728;SDS011;73707;56.480;-2.840;2024-03-23T04:39:44;7.10;;;2.17;;
83728;SDS011;73707;56.480;-2.840;2024-03-23T04:42:10;4.78;;;1.67;;
83728;SDS011;73707;56.480;-2.840;2024-03-23T04:44:37;4.68;;;1.60;;
83728;SDS011;73707;56.480;-2.840;2024-03-23T04:47:02;4.57;;;1.50;;
83728;SDS011;73707;56.480;-2.840;2024-03-23T04:49:28;5.32;;;1.20;;
83728;SDS011;73707;56.480;-2.840;2024-03-23T04:51:54;2.93;;;1.50;;
83728;SDS011;73707;56.480;-2.840;2024-03-23T04:54:20;5.10;;;1.60;;
83728;SDS011;73707;56.480;-2.840;2024-03-23T04:56:45;3.13;;;1.20;;
83728;SDS011;73707;56.480;-2.840;2024-03-23T04:59:11;3.50;;;1.08;;
83728;SDS011;73707;56.480;-2.840;2024-03-23T05:01:36;3.10;;;0.93;;
83728;SDS011;73707;56.480;-2.840;2024-03-23T05:04:05;4.82;;;1.15;;
83728;SDS011;73707;56.480;-2.840;2024-03-23T05:06:30;3.08;;;1.40;;
83728;SDS011;73707;56.480;-2.840;2024-03-23T05:08:56;4.70;;;1.17;;
83728;SDS011;73707;56.480;-2.840;2024-03-23T05:11:22;4.97;;;1.27;;
83728;SDS011;73707;56.480;-2.840;2024-03-23T05:13:48;3.05;;;1.00;;
83728;SDS011;73707;56.480;-2.840;2024-03-23T05:16:13;5.37;;;1.07;;
83728;SDS011;73707;56.480;-2.840;2024-03-23T05:18:39;4.78;;;0.95;;
83728;SDS011;73707;56.480;-2.840;2024-03-23T05:21:04;5.10;;;1.47;;
83728;SDS011;73707;56.480;-2.840;2024-03-23T05:23:30;3.50;;;1.23;;
83728;SDS011;73707;56.480;-2.840;2024-03-23T05:25:56;2.20;;;0.93;;
83728;SDS011;73707;56.480;-2.840;2024-03-23T05:28:22;4.50;;;1.27;;
83728;SDS011;73707;56.480;-2.840;2024-03-23T05:30:54;3.58;;;1.05;;
83728;SDS011;73707;56.480;-2.840;2024-03-23T05:33:20;3.22;;;1.10;;
83728;SDS011;73707;56.480;-2.840;2024-03-23T05:35:46;5.00;;;1.13;;
83728;SDS011;73707;56.480;-2.840;2024-03-23T05:38:12;7.07;;;1.70;;
83728;SDS011;73707;56.480;-2.840;2024-03-23T05:40:39;3.85;;;0.98;;
83728;SDS011;73707;56.480;-2.840;2024-03-23T05:43:08;2.60;;;1.10;;
83728;SDS011;73707;56.480;-2.840;2024-03-23T05:45:34;4.05;;;0.80;;
83728;SDS011;73707;56.480;-2.840;2024-03-23T05:48:00;5.50;;;1.10;;
83728;SDS011;73707;56.480;-2.840;2024-03-23T05:50:26;2.40;;;1.15;;
83728;SDS011;73707;56.480;-2.840;2024-03-23T05:52:51;3.25;;;1.00;;
83728;SDS011;73707;56.480;-2.840;2024-03-23T05:55:17;6.57;;;1.30;;
83728;SDS011;73707;56.480;-2.840;2024-03-23T05:57:43;6.45;;;1.10;;
83728;SDS011;73707;56.480;-2.840;2024-03-23T06:00:09;2.90;;;1.20;;
83728;SDS011;73707;56.480;-2.840;2024-03-23T06:02:41;3.28;;;1.27;;
83728;SDS011;73707;56.480;-2.840;2024-03-23T06:05:12;4.78;;;1.48;;
83728;SDS011;73707;56.480;-2.840;2024-03-23T06:07:38;3.93;;;1.17;;
83728;SDS011;73707;56.480;-2.840;2024-03-23T06:10:04;3.47;;;1.13;;
83728;SDS011;73707;56.480;-2.840;2024-03-23T06:12:31;2.75;;;0.88;;
83728;SDS011;73707;56.480;-2.840;2024-03-23T06:14:57;2.70;;;1.05;;
83728;SDS011;73707;56.480;-2.840;2024-03-23T06:17:22;2.30;;;1.00;;
83728;SDS011;73707;56.480;-2.840;2024-03-23T06:19:48;3.77;;;1.20;;
83728;SDS011;73707;56.480;-2.840;2024-03-23T06:22:14;4.28;;;0.90;;
83728;SDS011;73707;56.480;-2.840;2024-03-23T06:24:40;5.90;;;1.00;;
83728;SDS011;73707;56.480;-2.840;2024-03-23T06:27:06;4.73;;;1.30;;
83728;SDS011;73707;56.480;-2.840;2024-03-23T06:29:31;4.43;;;1.20;;
83728;SDS011;73707;56.480;-2.840;2024-03-23T06:31:57;5.10;;;1.37;;
83728;SDS011;73707;56.480;-2.840;2024-03-23T06:34:23;3.92;;;1.17;;
83728;SDS011;73707;56.480;-2.840;2024-03-23T06:36:50;8.37;;;1.90;;
83728;SDS011;73707;56.480;-2.840;2024-03-23T06:39:15;3.23;;;1.27;;
83728;SDS011;73707;56.480;-2.840;2024-03-23T06:41:42;6.45;;;1.85;;
83728;SDS011;73707;56.480;-2.840;2024-03-23T06:44:08;6.15;;;1.65;;
83728;SDS011;73707;56.480;-2.840;2024-03-23T06:46:33;4.55;;;1.77;;
83728;SDS011;73707;56.480;-2.840;2024-03-23T06:48:59;5.73;;;2.20;;
83728;SDS011;73707;56.480;-2.840;2024-03-23T06:51:25;7.00;;;1.75;;
83728;SDS011;73707;56.480;-2.840;2024-03-23T06:53:50;7.80;;;2.20;;
83728;SDS011;73707;56.480;-2.840;2024-03-23T06:56:16;4.10;;;1.80;;
83728;SDS011;73707;56.480;-2.840;2024-03-23T06:58:42;7.40;;;2.38;;
83728;SDS011;73707;56.480;-2.840;2024-03-23T07:01:07;4.53;;;2.00;;
83728;SDS011;73707;56.480;-2.840;2024-03-23T07:03:33;5.93;;;1.83;;
83728;SDS011;73707;56.480;-2.840;2024-03-23T07:05:58;5.93;;;2.00;;
83728;SDS011;73707;56.480;-2.840;2024-03-23T07:08:24;7.38;;;2.30;;
83728;SDS011;73707;56.480;-2.840;2024-03-23T07:10:50;3.70;;;1.95;;
83728;SDS011;73707;56.480;-2.840;2024-03-23T07:13:16;6.82;;;1.40;;
83728;SDS011;73707;56.480;-2.840;2024-03-23T07:15:42;8.65;;;2.17;;
83728;SDS011;73707;56.480;-2.840;2024-03-23T07:18:08;5.68;;;1.55;;
83728;SDS011;73707;56.480;-2.840;2024-03-23T07:20:34;6.70;;;1.50;;
83728;SDS011;73707;56.480;-2.840;2024-03-23T07:22:59;4.67;;;1.53;;
83728;SDS011;73707;56.480;-2.840;2024-03-23T07:25:25;4.32;;;1.60;;
83728;SDS011;73707;56.480;-2.840;2024-03-23T07:27:53;3.28;;;1.17;;
83728;SDS011;73707;56.480;-2.840;2024-03-23T07:30:18;4.07;;;1.30;;
83728;SDS011;73707;56.480;-2.840;2024-03-23T07:32:44;4.50;;;1.40;;
83728;SDS011;73707;56.480;-2.840;2024-03-23T07:35:10;5.40;;;2.17;;
83728;SDS011;73707;56.480;-2.840;2024-03-23T07:37:36;4.78;;;1.67;;
83728;SDS011;73707;56.480;-2.840;2024-03-23T07:40:01;9.13;;;2.03;;
83728;SDS011;73707;56.480;-2.840;2024-03-23T07:42:28;4.43;;;1.60;;
83728;SDS011;73707;56.480;-2.840;2024-03-23T07:44:54;5.57;;;1.25;;
83728;SDS011;73707;56.480;-2.840;2024-03-23T07:47:22;6.05;;;2.25;;
83728;SDS011;73707;56.480;-2.840;2024-03-23T07:49:47;6.07;;;2.05;;
83728;SDS011;73707;56.480;-2.840;2024-03-23T07:52:13;5.33;;;1.97;;
83728;SDS011;73707;56.480;-2.840;2024-03-23T07:54:39;5.05;;;1.67;;
83728;SDS011;73707;56.480;-2.840;2024-03-23T07:57:05;7.03;;;2.17;;
83728;SDS011;73707;56.480;-2.840;2024-03-23T07:59:31;4.30;;;1.80;;
83728;SDS011;73707;56.480;-2.840;2024-03-23T08:01:59;4.95;;;1.88;;
83728;SDS011;73707;56.480;-2.840;2024-03-23T08:04:26;6.45;;;1.55;;
83728;SDS011;73707;56.480;-2.840;2024-03-23T08:06:52;6.20;;;2.35;;
83728;SDS011;73707;56.480;-2.840;2024-03-23T08:09:18;3.85;;;1.98;;
83728;SDS011;73707;56.480;-2.840;2024-03-23T08:11:44;5.00;;;1.67;;
83728;SDS011;73707;56.480;-2.840;2024-03-23T08:14:11;7.55;;;1.88;;
83728;SDS011;73707;56.480;-2.840;2024-03-23T08:16:37;6.15;;;1.58;;
83728;SDS011;73707;56.480;-2.840;2024-03-23T08:19:03;5.03;;;2.30;;
83728;SDS011;73707;56.480;-2.840;2024-03-23T08:21:28;7.93;;;2.05;;
83728;SDS011;73707;56.480;-2.840;2024-03-23T08:23:54;7.07;;;2.10;;
83728;SDS011;73707;56.480;-2.840;2024-03-23T08:26:20;8.63;;;1.97;;
83728;SDS011;73707;56.480;-2.840;2024-03-23T08:28:45;5.97;;;1.35;;
83728;SDS011;73707;56.480;-2.840;2024-03-23T08:31:13;6.90;;;2.00;;
83728;SDS011;73707;56.480;-2.840;2024-03-23T08:33:41;4.20;;;1.97;;
83728;SDS011;73707;56.480;-2.840;2024-03-23T08:36:08;5.60;;;1.98;;
83728;SDS011;73707;56.480;-2.840;2024-03-23T08:38:37;5.53;;;1.60;;
83728;SDS011;73707;56.480;-2.840;2024-03-23T08:43:31;4.82;;;1.67;;
83728;SDS011;73707;56.480;-2.840;2024-03-23T08:46:10;5.50;;;0.90;;
83728;SDS011;73707;56.480;-2.840;2024-03-23T08:48:41;4.90;;;1.90;;
83728;SDS011;73707;56.480;-2.840;2024-03-23T08:51:09;3.00;;;1.33;;
83728;SDS011;73707;56.480;-2.840;2024-03-23T08:53:36;3.28;;;1.05;;
83728;SDS011;73707;56.480;-2.840;2024-03-23T08:56:02;4.95;;;1.13;;
83728;SDS011;73707;56.480;-2.840;2024-03-23T08:58:30;1.23;;;0.60;;
83728;SDS011;73707;56.480;-2.840;2024-03-23T09:01:02;3.67;;;1.15;;
83728;SDS011;73707;56.480;-2.840;2024-03-23T09:03:34;4.57;;;0.80;;
83728;SDS011;73707;56.480;-2.840;2024-03-23T09:06:02;2.60;;;0.60;;
83728;SDS011;73707;56.480;-2.840;2024-03-23T09:08:31;1.60;;;0.70;;
83728;SDS011;73707;56.480;-2.840;2024-03-23T09:10:57;2.78;;;0.70;;
83728;SDS011;73707;56.480;-2.840;2024-03-23T09:13:23;4.60;;;1.30;;
83728;SDS011;73707;56.480;-2.840;2024-03-23T09:15:51;2.97;;;0.70;;
83728;SDS011;73707;56.480;-2.840;2024-03-23T09:18:26;0.93;;;0.50;;
83728;SDS011;73707;56.480;-2.840;2024-03-23T09:20:52;2.33;;;0.50;;
83728;SDS011;73707;56.480;-2.840;2024-03-23T09:23:21;1.55;;;0.50;;
83728;SDS011;73707;56.480;-2.840;2024-03-23T09:25:46;1.50;;;0.45;;
83728;SDS011;73707;56.480;-2.840;2024-03-23T09:28:12;2.22;;;0.55;;
83728;SDS011;73707;56.480;-2.840;2024-03-23T09:30:38;0.60;;;0.30;;
83728;SDS011;73707;56.480;-2.840;2024-03-23T09:33:12;3.83;;;0.60;;
83728;SDS011;73707;56.480;-2.840;2024-03-23T09:35:38;1.90;;;0.52;;
83728;SDS011;73707;56.480;-2.840;2024-03-23T09:38:05;2.80;;;0.60;;
83728;SDS011;73707;56.480;-2.840;2024-03-23T09:40:34;2.78;;;0.73;;
83728;SDS011;73707;56.480;-2.840;2024-03-23T09:43:06;2.40;;;0.40;;
83728;SDS011;73707;56.480;-2.840;2024-03-23T09:45:32;1.75;;;0.70;;
83728;SDS011;73707;56.480;-2.840;2024-03-23T09:48:00;0.93;;;0.40;;
83728;SDS011;73707;56.480;-2.840;2024-03-23T09:50:29;1.63;;;0.80;;
83728;SDS011;73707;56.480;-2.840;2024-03-23T09:52:55;2.78;;;0.90;;
83728;SDS011;73707;56.480;-2.840;2024-03-23T09:55:20;2.30;;;0.43;;
83728;SDS011;73707;56.480;-2.840;2024-03-23T09:57:46;1.20;;;0.50;;
83728;SDS011;73707;56.480;-2.840;2024-03-23T10:00:12;1.43;;;0.50;;
83728;SDS011;73707;56.480;-2.840;2024-03-23T10:02:38;3.03;;;0.70;;
83728;SDS011;73707;56.480;-2.840;2024-03-23T10:05:04;2.10;;;0.40;;
83728;SDS011;73707;56.480;-2.840;2024-03-23T10:07:44;1.20;;;0.60;;
83728;SDS011;73707;56.480;-2.840;2024-03-23T10:10:10;4.77;;;0.70;;
83728;SDS011;73707;56.480;-2.840;2024-03-23T10:12:39;1.23;;;0.50;;
83728;SDS011;73707;56.480;-2.840;2024-03-23T10:15:15;2.63;;;0.70;;
83728;SDS011;73707;56.480;-2.840;2024-03-23T10:17:44;1.80;;;0.40;;
83728;SDS011;73707;56.480;-2.840;2024-03-23T10:20:10;1.55;;;0.30;;
83728;SDS011;73707;56.480;-2.840;2024-03-23T10:22:39;0.65;;;0.35;;
83728;SDS011;73707;56.480;-2.840;2024-03-23T10:25:08;1.52;;;0.40;;
83728;SDS011;73707;56.480;-2.840;2024-03-23T10:27:35;0.65;;;0.30;;
83728;SDS011;73707;56.480;-2.840;2024-03-23T10:30:08;2.22;;;0.40;;
83728;SDS011;73707;56.480;-2.840;2024-03-23T10:32:37;0.90;;;0.30;;
83728;SDS011;73707;56.480;-2.840;2024-03-23T10:35:21;1.60;;;0.40;;
83728;SDS011;73707;56.480;-2.840;2024-03-23T10:37:47;2.75;;;0.40;;
83728;SDS011;73707;56.480;-2.840;2024-03-23T10:40:16;1.35;;;0.50;;
83728;SDS011;73707;56.480;-2.840;2024-03-23T10:42:45;0.90;;;0.60;;
83728;SDS011;73707;56.480;-2.840;2024-03-23T10:45:12;1.02;;;0.68;;
83728;SDS011;73707;56.480;-2.840;2024-03-23T10:47:38;6.50;;;0.52;;
83728;SDS011;73707;56.480;-2.840;2024-03-23T10:50:04;1.20;;;0.40;;
83728;SDS011;73707;56.480;-2.840;2024-03-23T10:52:33;1.02;;;0.45;;
83728;SDS011;73707;56.480;-2.840;2024-03-23T10:54:58;1.88;;;0.90;;
83728;SDS011;73707;56.480;-2.840;2024-03-23T10:57:34;1.20;;;0.50;;
83728;SDS011;73707;56.480;-2.840;2024-03-23T11:00:06;1.25;;;0.60;;
83728;SDS011;73707;56.480;-2.840;2024-03-23T11:02:33;0.63;;;0.40;;
83728;SDS011;73707;56.480;-2.840;2024-03-23T11:04:59;1.23;;;0.50;;
83728;SDS011;73707;56.480;-2.840;2024-03-23T11:07:30;2.47;;;0.68;;
83728;SDS011;73707;56.480;-2.840;2024-03-23T11:09:57;2.43;;;0.53;;
83728;SDS011;73707;56.480;-2.840;2024-03-23T11:14:50;2.07;;;0.73;;
83728;SDS011;73707;56.480;-2.840;2024-03-23T11:17:22;1.20;;;0.43;;
83728;SDS011;73707;56.480;-2.840;2024-03-23T11:20:06;0.75;;;0.52;;
83728;SDS011;73707;56.480;-2.840;2024-03-23T11:25:12;1.77;;;0.77;;
83728;SDS011;73707;56.480;-2.840;2024-03-23T11:27:38;1.30;;;0.60;;
83728;SDS011;73707;56.480;-2.840;2024-03-23T11:30:17;1.23;;;0.52;;
83728;SDS011;73707;56.480;-2.840;2024-03-23T11:32:50;0.38;;;0.38;;
83728;SDS011;73707;56.480;-2.840;2024-03-23T11:43:06;0.95;;;0.40;;
83728;SDS011;73707;56.480;-2.840;2024-03-23T11:45:36;0.65;;;0.35;;
83728;SDS011;73707;56.480;-2.840;2024-03-23T11:48:05;1.38;;;0.30;;
83728;SDS011;73707;56.480;-2.840;2024-03-23T11:50:42;1.40;;;0.22;;
83728;SDS011;73707;56.480;-2.840;2024-03-23T11:55:45;0.40;;;0.10;;
83728;SDS011;73707;56.480;-2.840;2024-03-23T11:58:15;2.10;;;0.22;;
83728;SDS011;73707;56.480;-2.840;2024-03-23T12:00:42;2.65;;;0.40;;
83728;SDS011;73707;56.480;-2.840;2024-03-23T12:03:08;0.30;;;0.20;;
83728;SDS011;73707;56.480;-2.840;2024-03-23T12:05:35;1.10;;;0.35;;
83728;SDS011;73707;56.480;-2.840;2024-03-23T12:10:53;0.80;;;0.30;;
83728;SDS011;73707;56.480;-2.840;2024-03-23T12:13:39;0.22;;;0.17;;
83728;SDS011;73707;56.480;-2.840;2024-03-23T12:18:46;1.20;;;0.30;;
83728;SDS011;73707;56.480;-2.840;2024-03-23T12:21:13;0.50;;;0.20;;
83728;SDS011;73707;56.480;-2.840;2024-03-23T12:23:39;0.60;;;0.20;;
83728;SDS011;73707;56.480;-2.840;2024-03-23T12:26:05;0.25;;;0.20;;
83728;SDS011;73707;56.480;-2.840;2024-03-23T12:28:31;0.45;;;0.20;;
83728;SDS011;73707;56.480;-2.840;2024-03-23T12:30:58;1.45;;;0.40;;
83728;SDS011;73707;56.480;-2.840;2024-03-23T12:33:24;3.70;;;0.60;;
83728;SDS011;73707;56.480;-2.840;2024-03-23T12:35:50;1.20;;;0.43;;
83728;SDS011;73707;56.480;-2.840;2024-03-23T12:38:16;1.30;;;0.30;;
83728;SDS011;73707;56.480;-2.840;2024-03-23T12:40:45;1.70;;;0.30;;
83728;SDS011;73707;56.480;-2.840;2024-03-23T12:43:13;1.48;;;0.35;;
83728;SDS011;73707;56.480;-2.840;2024-03-23T12:45:39;0.45;;;0.30;;
83728;SDS011;73707;56.480;-2.840;2024-03-23T12:48:04;1.00;;;0.30;;
83728;SDS011;73707;56.480;-2.840;2024-03-23T12:50:30;1.60;;;0.65;;
83728;SDS011;73707;56.480;-2.840;2024-03-23T12:52:56;0.77;;;0.47;;
83728;SDS011;73707;56.480;-2.840;2024-03-23T12:55:21;4.20;;;0.40;;
83728;SDS011;73707;56.480;-2.840;2024-03-23T12:57:47;0.88;;;0.38;;
83728;SDS011;73707;56.480;-2.840;2024-03-23T13:00:13;1.83;;;0.40;;
83728;SDS011;73707;56.480;-2.840;2024-03-23T13:02:40;0.70;;;0.45;;
83728;SDS011;73707;56.480;-2.840;2024-03-23T13:05:06;1.95;;;0.63;;
83728;SDS011;73707;56.480;-2.840;2024-03-23T13:07:35;1.75;;;0.52;;
83728;SDS011;73707;56.480;-2.840;2024-03-23T13:10:02;0.77;;;0.30;;
83728;SDS011;73707;56.480;-2.840;2024-03-23T13:12:28;0.60;;;0.30;;
83728;SDS011;73707;56.480;-2.840;2024-03-23T13:14:54;1.20;;;0.70;;
83728;SDS011;73707;56.480;-2.840;2024-03-23T13:17:20;1.17;;;0.40;;
83728;SDS011;73707;56.480;-2.840;2024-03-23T13:19:46;3.05;;;0.60;;
83728;SDS011;73707;56.480;-2.840;2024-03-23T13:22:11;1.20;;;0.60;;
83728;SDS011;73707;56.480;-2.840;2024-03-23T13:24:37;1.87;;;0.50;;
83728;SDS011;73707;56.480;-2.840;2024-03-23T13:27:03;1.73;;;0.47;;
83728;SDS011;73707;56.480;-2.840;2024-03-23T13:29:32;1.00;;;0.50;;
83728;SDS011;73707;56.480;-2.840;2024-03-23T13:31:59;1.35;;;0.43;;
83728;SDS011;73707;56.480;-2.840;2024-03-23T13:34:25;1.13;;;0.63;;
83728;SDS011;73707;56.480;-2.840;2024-03-23T13:36:50;4.03;;;0.53;;
83728;SDS011;73707;56.480;-2.840;2024-03-23T13:39:16;2.10;;;0.50;;
83728;SDS011;73707;56.480;-2.840;2024-03-23T13:41:45;1.13;;;0.50;;
83728;SDS011;73707;56.480;-2.840;2024-03-23T13:44:12;1.17;;;0.70;;
83728;SDS011;73707;56.480;-2.840;2024-03-23T13:46:39;1.33;;;0.50;;
83728;SDS011;73707;56.480;-2.840;2024-03-23T13:49:05;1.55;;;0.45;;
83728;SDS011;73707;56.480;-2.840;2024-03-23T13:51:32;2.00;;;0.60;;
83728;SDS011;73707;56.480;-2.840;2024-03-23T13:53:58;2.67;;;0.55;;
83728;SDS011;73707;56.480;-2.840;2024-03-23T13:56:27;1.80;;;0.60;;
83728;SDS011;73707;56.480;-2.840;2024-03-23T13:58:54;2.63;;;0.52;;
83728;SDS011;73707;56.480;-2.840;2024-03-23T14:01:21;2.00;;;0.73;;
83728;SDS011;73707;56.480;-2.840;2024-03-23T14:03:47;0.85;;;0.55;;
83728;SDS011;73707;56.480;-2.840;2024-03-23T14:06:12;2.80;;;0.87;;
83728;SDS011;73707;56.480;-2.840;2024-03-23T14:08:38;4.00;;;0.82;;
83728;SDS011;73707;56.480;-2.840;2024-03-23T14:11:08;3.77;;;0.67;;
83728;SDS011;73707;56.480;-2.840;2024-03-23T14:13:34;2.45;;;1.00;;
83728;SDS011;73707;56.480;-2.840;2024-03-23T14:16:00;1.95;;;0.70;;
83728;SDS011;73707;56.480;-2.840;2024-03-23T14:18:26;1.60;;;0.60;;
83728;SDS011;73707;56.480;-2.840;2024-03-23T14:20:55;1.85;;;0.80;;
83728;SDS011;73707;56.480;-2.840;2024-03-23T14:23:24;2.37;;;0.50;;
83728;SDS011;73707;56.480;-2.840;2024-03-23T14:25:59;2.30;;;0.90;;
83728;SDS011;73707;56.480;-2.840;2024-03-23T14:28:25;2.50;;;0.70;;
83728;SDS011;73707;56.480;-2.840;2024-03-23T14:30:51;3.77;;;1.00;;
83728;SDS011;73707;56.480;-2.840;2024-03-23T14:33:20;2.53;;;0.90;;
83728;SDS011;73707;56.480;-2.840;2024-03-23T14:35:52;2.63;;;0.80;;
83728;SDS011;73707;56.480;-2.840;2024-03-23T14:38:24;3.08;;;0.80;;
83728;SDS011;73707;56.480;-2.840;2024-03-23T14:40:50;1.60;;;0.65;;
83728;SDS011;73707;56.480;-2.840;2024-03-23T14:43:19;1.10;;;0.38;;
83728;SDS011;73707;56.480;-2.840;2024-03-23T14:48:30;3.00;;;0.75;;
83728;SDS011;73707;56.480;-2.840;2024-03-23T14:50:56;0.82;;;0.50;;
83728;SDS011;73707;56.480;-2.840;2024-03-23T14:53:22;4.03;;;0.90;;
83728;SDS011;73707;56.480;-2.840;2024-03-23T14:55:48;1.38;;;0.60;;
83728;SDS011;73707;56.480;-2.840;2024-03-23T14:58:14;2.38;;;0.60;;
83728;SDS011;73707;56.480;-2.840;2024-03-23T15:00:40;1.60;;;0.70;;
83728;SDS011;73707;56.480;-2.840;2024-03-23T15:03:05;2.47;;;0.60;;
83728;SDS011;73707;56.480;-2.840;2024-03-23T15:05:31;6.00;;;1.05;;
83728;SDS011;73707;56.480;-2.840;2024-03-23T15:07:57;1.77;;;0.60;;
83728;SDS011;73707;56.480;-2.840;2024-03-23T15:10:23;1.95;;;0.77;;
83728;SDS011;73707;56.480;-2.840;2024-03-23T15:12:49;2.17;;;0.70;;
83728;SDS011;73707;56.480;-2.840;2024-03-23T15:15:14;2.60;;;1.02;;
83728;SDS011;73707;56.480;-2.840;2024-03-23T15:17:41;2.70;;;0.55;;
83728;SDS011;73707;56.480;-2.840;2024-03-23T15:20:09;2.53;;;0.50;;
83728;SDS011;73707;56.480;-2.840;2024-03-23T15:22:36;2.20;;;0.80;;
83728;SDS011;73707;56.480;-2.840;2024-03-23T15:25:02;2.67;;;0.73;;
83728;SDS011;73707;56.480;-2.840;2024-03-23T15:27:28;1.55;;;0.65;;
83728;SDS011;73707;56.480;-2.840;2024-03-23T15:29:55;1.55;;;0.45;;
83728;SDS011;73707;56.480;-2.840;2024-03-23T15:32:22;1.20;;;0.65;;
83728;SDS011;73707;56.480;-2.840;2024-03-23T15:34:48;1.10;;;0.45;;
83728;SDS011;73707;56.480;-2.840;2024-03-23T15:37:14;2.08;;;0.28;;
83728;SDS011;73707;56.480;-2.840;2024-03-23T15:39:40;0.90;;;0.30;;
83728;SDS011;73707;56.480;-2.840;2024-03-23T15:42:08;1.20;;;0.37;;
83728;SDS011;73707;56.480;-2.840;2024-03-23T15:44:35;1.95;;;0.50;;
83728;SDS011;73707;56.480;-2.840;2024-03-23T15:47:01;0.82;;;0.40;;
83728;SDS011;73707;56.480;-2.840;2024-03-23T15:49:27;1.52;;;0.40;;